createdAt,value
2023-04-26T00:01:30.232Z,85.10
2023-04-26T00:04:03.338Z,85.50
2023-04-26T00:06:37.373Z,89.30
2023-04-26T00:09:09.455Z,87.80
2023-04-26T00:14:17.528Z,93.90
2023-04-26T00:16:49.702Z,94.20
2023-04-26T00:19:21.804Z,90.80
2023-04-26T00:21:54.025Z,86.20
2023-04-26T00:24:26.342Z,85.30
2023-04-26T00:27:01.665Z,86.30
2023-04-26T00:29:34.748Z,88.40
2023-04-26T00:32:07.089Z,92.60
2023-04-26T00:34:39.374Z,90.90
2023-04-26T00:37:11.452Z,92.30
2023-04-26T00:39:43.518Z,93.30
2023-04-26T00:42:19.599Z,92.80
2023-04-26T00:44:55.370Z,92.70
2023-04-26T00:47:29.875Z,93.90
2023-04-26T00:52:37.744Z,79.60
2023-04-26T00:55:10.478Z,79.50
2023-04-26T00:57:46.103Z,79.60
2023-04-26T01:00:18.993Z,79.60
2023-04-26T01:02:51.515Z,79.60
2023-04-26T01:05:23.798Z,79.60
2023-04-26T01:07:56.200Z,79.70
2023-04-26T01:10:29.372Z,80.70
2023-04-26T01:13:04.502Z,83.10
2023-04-26T01:15:36.934Z,89.10
2023-04-26T01:18:09.066Z,99.40
2023-04-26T01:25:50.540Z,90.80
2023-04-26T01:28:23.237Z,79.40
2023-04-26T01:30:55.512Z,79.30
2023-04-26T01:33:27.744Z,79.30
2023-04-26T01:35:59.808Z,79.20
2023-04-26T01:38:34.560Z,79.30
2023-04-26T01:41:06.750Z,79.30
2023-04-26T01:43:38.927Z,79.20
2023-04-26T01:46:11.201Z,79.30
2023-04-26T01:48:43.320Z,79.40
2023-04-26T01:51:15.561Z,79.70
2023-04-26T01:53:50.415Z,80.00
2023-04-26T01:56:24.444Z,80.70
2023-04-26T01:58:57.595Z,80.40
2023-04-26T02:01:29.831Z,90.60
2023-04-26T02:04:01.938Z,88.90
2023-04-26T02:06:34.044Z,88.60
2023-04-26T02:09:11.794Z,92.30
2023-04-26T02:11:43.900Z,86.80
2023-04-26T02:14:15.960Z,88.00
2023-04-26T02:16:48.086Z,87.90
2023-04-26T02:19:20.166Z,88.70
2023-04-26T02:21:54.519Z,90.00
2023-04-26T02:24:31.006Z,90.70
2023-04-26T02:27:05.637Z,91.60
2023-04-26T02:29:44.367Z,91.60
2023-04-26T02:32:16.989Z,90.80
2023-04-26T02:34:49.067Z,89.80
2023-04-26T02:37:22.275Z,88.90
2023-04-26T02:39:56.930Z,86.90
2023-04-26T02:42:29.043Z,87.90
2023-04-26T02:45:01.131Z,86.10
2023-04-26T02:47:33.326Z,87.90
2023-04-26T02:50:10.051Z,83.20
2023-04-26T02:52:42.132Z,90.70
2023-04-26T02:55:17.485Z,81.00
2023-04-26T02:57:49.594Z,81.30
2023-04-26T03:00:22.387Z,90.00
2023-04-26T03:02:54.677Z,89.50
2023-04-26T03:05:26.914Z,91.30
2023-04-26T03:07:59.026Z,92.60
2023-04-26T03:10:33.810Z,88.40
2023-04-26T03:13:05.992Z,89.40
2023-04-26T03:15:38.059Z,90.00
2023-04-26T03:18:10.205Z,90.40
2023-04-26T03:20:42.476Z,90.40
2023-04-26T03:23:14.723Z,90.60
2023-04-26T03:25:49.395Z,92.80
2023-04-26T03:28:21.644Z,93.50
2023-04-26T03:30:53.685Z,81.20
2023-04-26T03:33:25.776Z,81.90
2023-04-26T03:35:57.855Z,82.10
2023-04-26T03:38:29.927Z,82.40
2023-04-26T03:41:04.881Z,82.90
2023-04-26T03:43:36.953Z,83.20
2023-04-26T03:46:09.275Z,83.50
2023-04-26T03:48:41.602Z,83.60
2023-04-26T03:51:13.697Z,83.70
2023-04-26T03:53:46.996Z,83.70
2023-04-26T03:56:21.827Z,83.70
2023-04-26T03:58:54.160Z,83.90
2023-04-26T04:01:26.459Z,83.90
2023-04-26T04:03:58.886Z,84.00
2023-04-26T04:06:31.373Z,84.20
2023-04-26T04:09:05.568Z,84.30
2023-04-26T04:11:40.352Z,84.30
2023-04-26T04:14:12.418Z,84.30
2023-04-26T04:16:44.498Z,84.30
2023-04-26T04:19:17.006Z,84.40
2023-04-26T04:21:49.075Z,84.50
2023-04-26T04:24:21.195Z,84.70
2023-04-26T04:26:56.296Z,84.80
2023-04-26T04:29:28.357Z,85.00
2023-04-26T04:32:00.426Z,85.10
2023-04-26T04:34:34.666Z,85.40
2023-04-26T04:37:06.750Z,85.70
2023-04-26T04:39:38.800Z,85.70
2023-04-26T04:42:13.499Z,86.00
2023-04-26T04:44:46.863Z,86.10
2023-04-26T04:47:18.995Z,86.20
2023-04-26T04:49:51.109Z,86.40
2023-04-26T04:52:23.227Z,86.80
2023-04-26T04:54:56.128Z,87.20
2023-04-26T04:57:32.627Z,87.50
2023-04-26T05:00:10.630Z,87.90
2023-04-26T05:02:42.946Z,88.00
2023-04-26T05:05:15.199Z,88.20
2023-04-26T05:07:47.341Z,88.40
2023-04-26T05:10:19.615Z,88.50
2023-04-26T05:12:54.453Z,88.80
2023-04-26T05:15:26.637Z,89.10
2023-04-26T05:17:59.753Z,89.30
2023-04-26T05:20:32.614Z,90.00
2023-04-26T05:23:04.669Z,90.00
2023-04-26T05:25:37.744Z,90.10
2023-04-26T05:28:15.170Z,90.20
2023-04-26T05:30:47.499Z,90.20
2023-04-26T05:33:19.613Z,90.10
2023-04-26T05:35:52.868Z,90.10
2023-04-26T05:38:25.299Z,90.20
2023-04-26T05:40:57.343Z,90.30
2023-04-26T05:43:32.128Z,90.40
2023-04-26T05:46:04.238Z,90.50
2023-04-26T05:48:36.298Z,90.60
2023-04-26T05:51:08.385Z,90.70
2023-04-26T05:53:40.470Z,90.80
2023-04-26T05:56:12.566Z,91.00
2023-04-26T05:58:47.909Z,91.10
2023-04-26T06:01:20.079Z,91.30
2023-04-26T06:03:54.316Z,91.40
2023-04-26T06:06:28.562Z,91.50
2023-04-26T06:09:00.722Z,91.60
2023-04-26T06:11:33.326Z,91.70
2023-04-26T06:14:14.387Z,91.80
2023-04-26T06:16:55.821Z,92.10
2023-04-26T06:19:27.944Z,92.00
2023-04-26T06:22:00.021Z,92.20
2023-04-26T06:24:32.148Z,92.40
2023-04-26T06:27:04.381Z,92.60
2023-04-26T06:29:39.032Z,92.90
2023-04-26T06:32:11.254Z,93.10
2023-04-26T06:34:45.597Z,93.30
2023-04-26T06:37:17.802Z,93.40
2023-04-26T06:39:50.208Z,93.60
2023-04-26T06:42:22.658Z,93.70
2023-04-26T06:44:57.579Z,94.00
2023-04-26T06:47:29.974Z,94.20
2023-04-26T06:50:04.710Z,94.40
2023-04-26T06:52:36.816Z,94.70
2023-04-26T06:55:10.323Z,95.00
2023-04-26T06:57:42.429Z,95.30
2023-04-26T07:00:18.322Z,95.50
2023-04-26T07:02:50.687Z,95.80
2023-04-26T07:05:23.540Z,96.00
2023-04-26T07:07:55.772Z,96.10
2023-04-26T07:10:27.954Z,96.20
2023-04-26T07:13:00.956Z,96.30
2023-04-26T07:15:36.532Z,96.50
2023-04-26T07:18:09.264Z,96.50
2023-04-26T07:20:41.437Z,96.60
2023-04-26T07:23:13.893Z,96.70
2023-04-26T07:25:45.998Z,96.60
2023-04-26T07:28:18.073Z,96.70
2023-04-26T07:30:52.736Z,96.40
2023-04-26T07:33:25.035Z,96.20
2023-04-26T07:36:00.109Z,96.10
2023-04-26T07:38:32.213Z,95.90
2023-04-26T07:41:05.145Z,95.80
2023-04-26T07:43:37.872Z,95.60
2023-04-26T07:46:12.563Z,95.50
2023-04-26T07:48:45.044Z,95.30
2023-04-26T07:51:17.308Z,95.20
2023-04-26T07:53:49.498Z,95.00
2023-04-26T07:56:24.297Z,94.80
2023-04-26T07:58:56.416Z,94.70
2023-04-26T08:01:31.127Z,94.40
2023-04-26T08:04:05.081Z,94.20
2023-04-26T08:06:39.022Z,94.00
2023-04-26T08:09:11.427Z,93.90
2023-04-26T08:11:43.588Z,93.60
2023-04-26T08:14:15.968Z,93.30
2023-04-26T08:16:51.742Z,93.00
2023-04-26T08:19:24.286Z,92.70
2023-04-26T08:21:56.594Z,92.50
2023-04-26T08:24:28.725Z,92.30
2023-04-26T08:27:00.897Z,92.00
2023-04-26T08:29:32.995Z,91.80
2023-04-26T08:32:07.758Z,91.60
2023-04-26T08:34:40.411Z,91.40
2023-04-26T08:37:13.964Z,91.10
2023-04-26T08:39:46.868Z,90.90
2023-04-26T08:42:19.943Z,90.70
2023-04-26T08:44:53.362Z,90.50
2023-04-26T08:47:35.981Z,90.30
2023-04-26T08:50:10.983Z,90.20
2023-04-26T08:52:44.881Z,90.10
2023-04-26T08:55:18.102Z,90.00
2023-04-26T08:57:51.157Z,89.80
2023-04-26T09:00:23.674Z,89.50
2023-04-26T09:02:58.482Z,89.20
2023-04-26T09:05:30.881Z,88.70
2023-04-26T09:08:05.428Z,88.10
2023-04-26T09:10:37.594Z,87.70
2023-04-26T09:13:10.031Z,86.70
2023-04-26T09:15:42.477Z,85.80
2023-04-26T09:18:22.155Z,85.30
2023-04-26T09:21:05.404Z,84.70
2023-04-26T09:23:57.762Z,84.50
2023-04-26T09:26:30.340Z,84.30
2023-04-26T09:29:13.315Z,84.40
2023-04-26T09:31:49.504Z,84.10
2023-04-26T09:34:24.940Z,83.60
2023-04-26T09:36:57.826Z,83.20
2023-04-26T09:39:34.655Z,82.40
2023-04-26T09:42:07.345Z,80.60
2023-04-26T09:44:39.540Z,79.40
2023-04-26T09:47:12.320Z,78.70
2023-04-26T09:49:50.413Z,78.40
2023-04-26T09:52:22.659Z,78.10
2023-04-26T09:54:55.498Z,78.10
2023-04-26T09:57:27.653Z,77.60
2023-04-26T10:00:01.103Z,77.40
2023-04-26T10:02:33.990Z,77.10
2023-04-26T10:05:09.968Z,77.00
2023-04-26T10:07:42.573Z,76.70
2023-04-26T10:10:14.952Z,76.30
2023-04-26T10:12:47.589Z,76.10
2023-04-26T10:15:19.766Z,75.80
2023-04-26T10:17:52.278Z,75.60
2023-04-26T10:20:28.927Z,75.50
2023-04-26T10:23:03.812Z,75.00
2023-04-26T10:25:37.047Z,75.00
2023-04-26T10:28:09.263Z,74.80
2023-04-26T10:30:57.626Z,74.50
2023-04-26T10:33:29.747Z,74.10
2023-04-26T10:36:14.344Z,74.20
2023-04-26T10:39:16.425Z,73.70
2023-04-26T10:41:48.981Z,72.90
2023-04-26T10:44:45.219Z,71.70
2023-04-26T10:47:30.869Z,70.70
2023-04-26T10:50:06.162Z,70.30
2023-04-26T10:53:06.284Z,70.30
2023-04-26T10:55:42.288Z,69.90
2023-04-26T10:58:28.191Z,70.00
2023-04-26T11:01:07.360Z,69.70
2023-04-26T11:03:41.347Z,69.60
2023-04-26T11:06:15.401Z,69.60
2023-04-26T11:08:50.272Z,69.30
2023-04-26T11:11:27.666Z,68.50
2023-04-26T11:14:02.453Z,68.20
2023-04-26T11:16:34.803Z,67.90
2023-04-26T11:19:07.437Z,67.60
2023-04-26T11:21:40.391Z,67.40
2023-04-26T11:24:15.525Z,67.10
2023-04-26T11:26:51.892Z,66.80
2023-04-26T11:29:25.117Z,66.70
2023-04-26T11:31:58.862Z,65.70
2023-04-26T11:34:35.461Z,65.90
2023-04-26T11:37:08.139Z,65.60
2023-04-26T11:39:45.769Z,65.20
2023-04-26T11:42:17.694Z,64.90
2023-04-26T11:44:52.010Z,65.10
2023-04-26T11:47:26.223Z,65.10
2023-04-26T11:49:58.467Z,65.10
2023-04-26T11:52:31.337Z,64.30
2023-04-26T11:55:07.394Z,64.10
2023-04-26T11:57:39.548Z,63.90
2023-04-26T12:00:14.909Z,63.10
2023-04-26T12:02:47.586Z,63.00
2023-04-26T12:05:23.997Z,62.80
2023-04-26T12:07:57.972Z,62.20
2023-04-26T12:10:35.088Z,61.40
2023-04-26T12:13:07.305Z,60.20
2023-04-26T12:15:42.441Z,60.70
2023-04-26T12:20:49.983Z,73.20
2023-04-26T12:23:23.422Z,58.40
2023-04-26T12:26:02.229Z,59.90
2023-04-26T12:28:34.442Z,55.90
2023-04-26T12:31:07.642Z,55.90
2023-04-26T12:33:39.844Z,55.80
2023-04-26T12:38:45.243Z,87.20
2023-04-26T12:41:20.000Z,55.10
2023-04-26T12:43:52.110Z,53.80
2023-04-26T12:46:24.380Z,53.60
2023-04-26T12:48:56.553Z,77.10
2023-04-26T12:51:30.067Z,52.40
2023-04-26T12:54:02.206Z,51.10
2023-04-26T12:56:40.964Z,50.80
2023-04-26T12:59:13.283Z,50.60
2023-04-26T13:01:45.466Z,50.50
2023-04-26T13:04:18.087Z,50.40
2023-04-26T13:06:50.433Z,50.20
2023-04-26T13:09:22.686Z,50.20
2023-04-26T13:11:57.417Z,50.00
2023-04-26T13:14:29.826Z,49.80
2023-04-26T13:17:02.086Z,49.20
2023-04-26T13:19:34.231Z,48.80
2023-04-26T13:22:08.466Z,48.80
2023-04-26T13:24:40.758Z,47.90
2023-04-26T13:27:15.628Z,47.30
2023-04-26T13:32:20.231Z,48.40
2023-04-26T13:34:53.079Z,52.40
2023-04-26T13:40:00.393Z,47.80
2023-04-26T13:42:35.151Z,55.90
2023-04-26T13:45:12.382Z,59.60
2023-04-26T13:47:44.364Z,61.10
2023-04-26T13:50:16.794Z,60.80
2023-04-26T13:52:51.102Z,58.20
2023-04-26T13:55:23.662Z,57.60
2023-04-26T13:57:58.749Z,67.90
2023-04-26T14:00:31.155Z,61.30
2023-04-26T14:03:04.075Z,59.10
2023-04-26T14:05:37.564Z,58.00
2023-04-26T14:08:10.456Z,54.40
2023-04-26T14:10:42.645Z,54.70
2023-04-26T14:13:25.965Z,55.20
2023-04-26T14:16:08.729Z,55.30
2023-04-26T14:18:50.783Z,55.60
2023-04-26T14:21:22.967Z,55.70
2023-04-26T14:23:55.568Z,55.80
2023-04-26T14:26:27.869Z,56.00
2023-04-26T14:29:02.755Z,56.00
2023-04-26T14:31:34.945Z,55.70
2023-04-26T14:34:07.142Z,55.60
2023-04-26T14:36:39.327Z,55.60
2023-04-26T14:39:11.468Z,55.70
2023-04-26T14:41:43.647Z,56.10
2023-04-26T14:44:18.364Z,56.50
2023-04-26T14:46:50.672Z,57.40
2023-04-26T14:49:23.021Z,59.10
2023-04-26T14:51:55.220Z,56.60
2023-04-26T14:54:30.631Z,57.40
2023-04-26T14:57:03.242Z,62.70
2023-04-26T14:59:38.113Z,45.70
2023-04-26T15:02:10.265Z,47.70
2023-04-26T15:04:42.605Z,47.40
2023-04-26T15:07:30.853Z,47.10
2023-04-26T15:10:05.404Z,47.10
2023-04-26T15:12:37.571Z,47.00
2023-04-26T15:15:12.555Z,47.10
2023-04-26T15:17:44.687Z,47.10
2023-04-26T15:20:17.278Z,47.30
2023-04-26T15:22:49.441Z,47.10
2023-04-26T15:25:21.632Z,47.30
2023-04-26T15:27:53.760Z,47.10
2023-04-26T15:30:30.503Z,47.10
2023-04-26T15:33:03.273Z,46.90
2023-04-26T15:35:35.447Z,47.00
2023-04-26T15:38:07.561Z,46.90
2023-04-26T15:40:39.650Z,46.90
2023-04-26T15:43:11.752Z,46.90
2023-04-26T15:45:46.714Z,47.00
2023-04-26T15:48:18.956Z,47.00
2023-04-26T15:50:53.898Z,47.10
2023-04-26T15:53:26.230Z,47.20
2023-04-26T15:55:58.377Z,47.10
2023-04-26T15:58:30.527Z,47.10
2023-04-26T16:01:05.358Z,47.00
2023-04-26T16:03:37.702Z,47.00
2023-04-26T16:06:09.990Z,46.90
2023-04-26T16:08:42.195Z,47.10
2023-04-26T16:11:14.398Z,47.20
2023-04-26T16:13:47.343Z,47.30
2023-04-26T16:16:22.932Z,47.20
2023-04-26T16:18:55.099Z,47.20
2023-04-26T16:21:27.478Z,47.10
2023-04-26T16:24:00.405Z,47.30
2023-04-26T16:26:32.714Z,47.40
2023-04-26T16:29:04.981Z,47.60
2023-04-26T16:31:40.460Z,47.70
2023-04-26T16:34:12.647Z,47.60
2023-04-26T16:36:44.755Z,47.70
2023-04-26T16:39:17.087Z,47.50
2023-04-26T16:41:49.217Z,47.60
2023-04-26T16:44:21.388Z,48.00
2023-04-26T16:46:56.262Z,49.20
2023-04-26T16:49:28.674Z,51.00
2023-04-26T16:52:01.971Z,52.90
2023-04-26T16:54:34.082Z,54.90
2023-04-26T16:57:06.225Z,51.00
2023-04-26T16:59:38.314Z,46.10
2023-04-26T17:02:13.145Z,47.10
2023-04-26T17:04:45.547Z,47.70
2023-04-26T17:07:17.936Z,48.40
2023-04-26T17:09:52.810Z,48.00
2023-04-26T17:12:24.962Z,46.00
2023-04-26T17:14:57.184Z,45.90
2023-04-26T17:17:31.885Z,47.50
2023-04-26T17:20:06.725Z,47.90
2023-04-26T17:22:39.597Z,47.90
2023-04-26T17:25:11.908Z,47.60
2023-04-26T17:27:44.023Z,49.50
2023-04-26T17:30:16.356Z,56.60
2023-04-26T17:32:51.585Z,56.80
2023-04-26T17:35:23.869Z,58.80
2023-04-26T17:40:28.832Z,68.60
2023-04-26T17:43:00.948Z,57.10
2023-04-26T17:45:33.083Z,57.40
2023-04-26T17:48:13.189Z,52.70
2023-04-26T17:50:45.632Z,51.60
2023-04-26T17:53:18.058Z,51.60
2023-04-26T17:55:53.090Z,52.10
2023-04-26T17:58:25.371Z,52.20
2023-04-26T18:00:57.678Z,52.80
2023-04-26T18:03:35.937Z,53.40
2023-04-26T18:06:08.225Z,56.20
2023-04-26T18:08:40.355Z,59.50
2023-04-26T18:11:12.487Z,56.70
2023-04-26T18:13:44.604Z,59.80
2023-04-26T18:16:17.312Z,55.90
2023-04-26T18:18:52.213Z,53.40
2023-04-26T18:21:24.466Z,52.90
2023-04-26T18:23:56.759Z,50.90
2023-04-26T18:26:29.900Z,50.20
2023-04-26T18:29:04.252Z,49.80
2023-04-26T18:31:36.469Z,49.70
2023-04-26T18:34:11.657Z,48.10
2023-04-26T18:36:43.844Z,48.20
2023-04-26T18:39:16.269Z,48.30
2023-04-26T18:41:48.561Z,48.40
2023-04-26T18:44:21.035Z,48.50
2023-04-26T18:46:55.988Z,48.60
2023-04-26T18:49:32.938Z,48.80
2023-04-26T18:52:09.029Z,49.00
2023-04-26T18:54:41.544Z,49.20
2023-04-26T18:57:16.759Z,49.30
2023-04-26T18:59:52.042Z,49.40
2023-04-26T19:02:24.314Z,51.30
2023-04-26T19:04:59.148Z,53.30
2023-04-26T19:07:31.381Z,49.80
2023-04-26T19:10:04.363Z,49.80
2023-04-26T19:12:36.644Z,53.30
2023-04-26T19:15:09.435Z,50.10
2023-04-26T19:17:41.947Z,50.30
2023-04-26T19:20:16.924Z,50.60
2023-04-26T19:22:49.083Z,51.70
2023-04-26T19:25:23.258Z,52.40
2023-04-26T19:27:55.470Z,52.80
2023-04-26T19:30:27.587Z,52.90
2023-04-26T19:32:59.775Z,53.00
2023-04-26T19:35:34.568Z,52.90
2023-04-26T19:38:07.026Z,52.70
2023-04-26T19:40:39.214Z,52.70
2023-04-26T19:43:11.748Z,52.60
2023-04-26T19:45:46.863Z,52.40
2023-04-26T19:48:19.082Z,52.40
2023-04-26T19:50:59.284Z,52.30
2023-04-26T19:53:31.513Z,52.10
2023-04-26T19:56:04.931Z,51.80
2023-04-26T19:58:37.381Z,51.60
2023-04-26T20:01:09.992Z,52.00
2023-04-26T20:03:42.625Z,51.40
2023-04-26T20:06:17.812Z,51.20
2023-04-26T20:09:53.439Z,51.20
2023-04-26T20:12:27.509Z,51.10
2023-04-26T20:15:02.808Z,50.90
2023-04-26T20:17:34.920Z,51.40
2023-04-26T20:20:08.705Z,50.80
2023-04-26T20:22:43.412Z,50.80
2023-04-26T20:25:15.840Z,51.00
2023-04-26T20:27:48.304Z,50.90
2023-04-26T20:30:20.523Z,51.10
2023-04-26T20:32:52.664Z,51.20
2023-04-26T20:35:24.756Z,51.30
2023-04-26T20:37:59.486Z,51.30
2023-04-26T20:40:31.908Z,51.30
2023-04-26T20:43:04.277Z,51.30
2023-04-26T20:45:36.337Z,51.20
2023-04-26T20:48:09.025Z,51.20
2023-04-26T20:50:41.452Z,51.20
2023-04-26T20:53:16.744Z,51.30
2023-04-26T20:55:51.357Z,51.30
2023-04-26T20:58:23.421Z,51.20
2023-04-26T21:00:55.759Z,51.10
2023-04-26T21:03:28.230Z,51.10
2023-04-26T21:06:00.661Z,51.20
2023-04-26T21:08:36.776Z,51.20
2023-04-26T21:11:09.195Z,51.20
2023-04-26T21:13:41.493Z,51.10
2023-04-26T21:16:13.717Z,51.00
2023-04-26T21:18:45.987Z,51.00
2023-04-26T21:21:19.184Z,50.90
2023-04-26T21:23:53.827Z,50.90
2023-04-26T21:26:25.936Z,50.90
2023-04-26T21:28:58.046Z,50.90
2023-04-26T21:31:30.265Z,51.00
2023-04-26T21:34:02.360Z,51.00
2023-04-26T21:36:34.444Z,51.20
2023-04-26T21:39:09.936Z,51.40
2023-04-26T21:41:42.362Z,51.50
2023-04-26T21:44:14.622Z,51.70
2023-04-26T21:46:46.866Z,51.70
2023-04-26T21:49:18.973Z,51.80
2023-04-26T21:51:51.040Z,51.80
2023-04-26T21:54:25.703Z,51.90
2023-04-26T21:56:57.835Z,52.00
2023-04-26T21:59:29.877Z,52.10
2023-04-26T22:02:02.001Z,52.30
2023-04-26T22:04:34.148Z,52.30
2023-04-26T22:07:06.594Z,52.40
2023-04-26T22:09:41.305Z,52.40
2023-04-26T22:12:13.413Z,52.50
2023-04-26T22:14:45.825Z,52.60
2023-04-26T22:17:17.908Z,52.70
2023-04-26T22:19:50.036Z,52.70
2023-04-26T22:22:22.107Z,52.20
2023-04-26T22:24:56.934Z,52.10
2023-04-26T22:27:29.349Z,52.20
2023-04-26T22:30:12.428Z,52.20
2023-04-26T22:32:54.911Z,52.60
2023-04-26T22:35:29.402Z,52.80
2023-04-26T22:43:08.956Z,73.00
2023-04-26T22:45:41.079Z,54.00
2023-04-26T22:48:13.216Z,54.20
2023-04-26T22:50:47.931Z,60.50
2023-04-26T22:55:55.781Z,54.30
2023-04-26T22:58:27.848Z,55.00
2023-04-26T23:01:00.006Z,55.20
2023-04-26T23:03:35.081Z,55.60
2023-04-26T23:06:07.659Z,59.40
2023-04-26T23:08:39.713Z,56.30
2023-04-26T23:11:14.423Z,56.60
2023-04-26T23:13:48.974Z,56.80
2023-04-26T23:16:23.953Z,57.00
2023-04-26T23:18:56.043Z,57.20
2023-04-26T23:21:28.471Z,57.70
2023-04-26T23:24:00.673Z,60.80
2023-04-26T23:26:35.536Z,57.20
2023-04-26T23:29:07.593Z,57.60
2023-04-26T23:31:39.677Z,70.40
2023-04-26T23:34:11.805Z,79.90
2023-04-26T23:36:43.950Z,66.40
2023-04-26T23:39:16.076Z,58.00
2023-04-26T23:41:50.731Z,59.00
2023-04-26T23:44:22.777Z,64.50
2023-04-26T23:46:54.868Z,58.50
2023-04-26T23:49:26.971Z,58.50
2023-04-26T23:51:59.119Z,60.20
2023-04-26T23:54:31.500Z,63.00
2023-04-26T23:57:06.520Z,66.20
2023-04-26T23:59:38.591Z,76.30
